createdAt,value
2018-07-15T00:02:05.336Z,4.83
2018-07-15T00:04:35.174Z,4.40
2018-07-15T00:07:04.416Z,4.53
2018-07-15T00:09:33.703Z,5.10
2018-07-15T00:12:03.404Z,4.27
2018-07-15T00:14:33.451Z,4.73
2018-07-15T00:17:03.675Z,4.30
2018-07-15T00:19:33.329Z,4.47
2018-07-15T00:22:04.389Z,5.10
2018-07-15T00:24:37.078Z,4.97
2018-07-15T00:27:07.104Z,5.20
2018-07-15T00:29:37.305Z,6.23
2018-07-15T00:32:06.449Z,4.50
2018-07-15T00:34:36.343Z,4.87
2018-07-15T00:37:05.387Z,5.23
2018-07-15T00:39:34.981Z,4.33
2018-07-15T00:42:05.685Z,5.30
2018-07-15T00:44:34.755Z,4.70
2018-07-15T00:47:03.821Z,4.97
2018-07-15T00:49:33.183Z,4.67
2018-07-15T00:52:02.275Z,5.50
2018-07-15T00:54:31.258Z,5.10
2018-07-15T00:57:01.245Z,4.90
2018-07-15T00:59:30.288Z,4.60
2018-07-15T01:02:00.134Z,4.43
2018-07-15T01:04:29.744Z,4.90
2018-07-15T01:06:58.799Z,4.80
2018-07-15T01:09:27.742Z,4.63
2018-07-15T01:11:57.572Z,5.40
2018-07-15T01:14:26.680Z,4.87
2018-07-15T01:16:56.016Z,5.23
2018-07-15T01:19:25.031Z,4.97
2018-07-15T01:21:56.788Z,4.50
2018-07-15T01:24:30.147Z,5.23
2018-07-15T01:26:59.417Z,5.73
2018-07-15T01:29:28.718Z,6.10
2018-07-15T01:31:58.464Z,6.17
2018-07-15T01:34:28.052Z,5.60
2018-07-15T01:36:57.961Z,5.50
2018-07-15T01:39:28.385Z,5.77
2018-07-15T01:41:57.808Z,5.40
2018-07-15T01:44:26.793Z,5.80
2018-07-15T01:46:56.523Z,5.87
2018-07-15T01:49:25.850Z,4.77
2018-07-15T01:51:56.426Z,5.57
2018-07-15T01:54:26.534Z,5.30
2018-07-15T01:56:55.540Z,5.37
2018-07-15T01:59:24.924Z,4.93
2018-07-15T02:01:55.535Z,5.60
2018-07-15T02:04:24.534Z,5.73
2018-07-15T02:06:53.617Z,4.80
2018-07-15T02:09:22.708Z,4.53
2018-07-15T02:11:53.913Z,5.00
2018-07-15T02:14:22.938Z,5.50
2018-07-15T02:16:52.065Z,5.23
2018-07-15T02:19:21.088Z,4.70
2018-07-15T02:21:51.240Z,5.83
2018-07-15T02:24:20.231Z,4.70
2018-07-15T02:26:49.257Z,4.80
2018-07-15T02:29:20.433Z,4.93
2018-07-15T02:31:49.811Z,5.00
2018-07-15T02:34:20.296Z,5.50
2018-07-15T02:36:49.887Z,4.77
2018-07-15T02:39:19.459Z,4.83
2018-07-15T02:41:52.112Z,4.93
2018-07-15T02:44:21.334Z,5.30
2018-07-15T02:46:50.574Z,6.20
2018-07-15T02:49:20.787Z,5.17
2018-07-15T02:51:49.880Z,5.40
2018-07-15T02:54:19.462Z,5.80
2018-07-15T02:56:48.687Z,5.50
2018-07-15T02:59:18.486Z,5.17
2018-07-15T03:01:47.796Z,5.57
2018-07-15T03:04:16.823Z,5.63
2018-07-15T03:06:46.084Z,6.73
2018-07-15T03:09:15.727Z,5.97
2018-07-15T03:11:45.102Z,5.90
2018-07-15T03:14:14.113Z,5.00
2018-07-15T03:16:43.180Z,5.43
2018-07-15T03:19:12.159Z,4.90
2018-07-15T03:21:41.231Z,5.03
2018-07-15T03:24:10.504Z,5.37
2018-07-15T03:26:41.121Z,5.50
2018-07-15T03:29:11.130Z,5.60
2018-07-15T03:31:40.436Z,5.43
2018-07-15T03:34:10.373Z,4.50
2018-07-15T03:36:39.543Z,4.37
2018-07-15T03:39:09.705Z,5.80
2018-07-15T03:41:40.911Z,5.60
2018-07-15T03:44:09.923Z,5.20
2018-07-15T03:46:39.079Z,4.93
2018-07-15T03:49:09.243Z,5.10
2018-07-15T03:51:38.234Z,5.37
2018-07-15T03:54:07.800Z,5.70
2018-07-15T03:56:37.628Z,4.87
2018-07-15T03:59:07.099Z,5.57
2018-07-15T04:01:36.927Z,4.43
2018-07-15T04:04:06.006Z,5.67
2018-07-15T04:06:35.062Z,5.43
2018-07-15T04:09:04.837Z,5.90
2018-07-15T04:11:34.135Z,4.60
2018-07-15T04:14:04.168Z,6.10
2018-07-15T04:16:33.785Z,5.63
2018-07-15T04:19:04.833Z,5.77
2018-07-15T04:21:33.921Z,6.43
2018-07-15T04:24:04.684Z,6.90
2018-07-15T04:26:34.187Z,6.73
2018-07-15T04:29:03.155Z,6.10
2018-07-15T04:31:32.258Z,6.80
2018-07-15T04:34:02.768Z,6.03
2018-07-15T04:36:31.763Z,5.97
2018-07-15T04:39:01.539Z,6.43
2018-07-15T04:41:31.252Z,5.70
2018-07-15T04:44:04.087Z,6.20
2018-07-15T04:46:33.891Z,6.30
2018-07-15T04:49:04.101Z,6.10
2018-07-15T04:51:34.157Z,6.13
2018-07-15T04:54:03.350Z,6.13
2018-07-15T04:56:33.521Z,4.47
2018-07-15T04:59:02.740Z,6.60
2018-07-15T05:01:31.818Z,5.37
2018-07-15T05:04:00.973Z,5.70
2018-07-15T05:06:30.061Z,4.87
2018-07-15T05:09:01.696Z,5.10
2018-07-15T05:11:31.313Z,5.07
2018-07-15T05:14:00.884Z,6.47
2018-07-15T05:16:30.783Z,6.43
2018-07-15T05:19:00.946Z,6.97
2018-07-15T05:21:31.685Z,6.90
2018-07-15T05:24:02.448Z,7.13
2018-07-15T05:26:33.545Z,7.40
2018-07-15T05:29:02.998Z,7.53
2018-07-15T05:31:32.163Z,7.60
2018-07-15T05:34:02.656Z,8.43
2018-07-15T05:36:32.695Z,9.23
2018-07-15T05:39:01.757Z,8.63
2018-07-15T05:41:30.967Z,8.93
2018-07-15T05:44:02.374Z,7.30
2018-07-15T05:46:31.778Z,8.53
2018-07-15T05:49:01.118Z,8.97
2018-07-15T05:51:30.659Z,10.20
2018-07-15T05:54:03.147Z,9.53
2018-07-15T05:56:33.913Z,8.30
2018-07-15T05:59:03.502Z,9.37
2018-07-15T06:01:34.315Z,7.83
2018-07-15T06:04:05.162Z,8.97
2018-07-15T06:06:34.643Z,8.90
2018-07-15T06:09:05.034Z,9.20
2018-07-15T06:11:34.097Z,8.47
2018-07-15T06:14:05.761Z,8.80
2018-07-15T06:16:35.274Z,8.93
2018-07-15T06:19:05.228Z,9.87
2018-07-15T06:21:34.959Z,10.33
2018-07-15T06:24:04.016Z,8.80
2018-07-15T06:26:33.101Z,9.57
2018-07-15T06:29:02.792Z,9.20
2018-07-15T06:31:32.686Z,8.60
2018-07-15T06:34:02.630Z,9.40
2018-07-15T06:36:31.607Z,8.80
2018-07-15T06:39:01.280Z,8.63
2018-07-15T06:41:30.355Z,8.30
2018-07-15T06:43:59.469Z,8.93
2018-07-15T06:46:28.773Z,8.53
2018-07-15T06:48:57.851Z,8.50
2018-07-15T06:51:27.663Z,7.37
2018-07-15T06:53:56.785Z,9.10
2018-07-15T06:56:25.888Z,9.30
2018-07-15T06:58:56.769Z,8.97
2018-07-15T07:01:25.830Z,8.13
2018-07-15T07:03:54.999Z,8.60
2018-07-15T07:06:24.327Z,7.70
2018-07-15T07:08:53.644Z,8.03
2018-07-15T07:11:23.033Z,8.70
2018-07-15T07:13:54.255Z,8.27
2018-07-15T07:16:23.474Z,8.70
2018-07-15T07:18:52.650Z,8.90
2018-07-15T07:21:22.207Z,7.37
2018-07-15T07:23:51.606Z,8.20
2018-07-15T07:26:20.854Z,6.90
2018-07-15T07:28:50.039Z,8.00
2018-07-15T07:31:20.948Z,8.00
2018-07-15T07:33:50.354Z,8.57
2018-07-15T07:36:19.841Z,7.90
2018-07-15T07:38:51.265Z,8.10
2018-07-15T07:41:22.137Z,8.50
2018-07-15T07:43:51.540Z,7.67
2018-07-15T07:46:20.980Z,7.30
2018-07-15T07:48:50.379Z,8.00
2018-07-15T07:51:21.688Z,7.63
2018-07-15T07:53:51.970Z,8.73
2018-07-15T07:56:21.422Z,9.03
2018-07-15T07:58:51.012Z,8.33
2018-07-15T08:01:22.316Z,8.30
2018-07-15T08:03:52.690Z,7.73
2018-07-15T08:06:23.228Z,7.20
2018-07-15T08:08:53.087Z,7.70
2018-07-15T08:11:24.369Z,7.97
2018-07-15T08:13:54.107Z,7.87
2018-07-15T08:16:24.397Z,7.60
2018-07-15T08:18:55.903Z,7.40
2018-07-15T08:21:26.118Z,7.13
2018-07-15T08:23:57.381Z,6.57
2018-07-15T08:26:27.821Z,7.47
2018-07-15T08:28:58.361Z,6.00
2018-07-15T08:31:27.661Z,7.23
2018-07-15T08:33:58.709Z,6.70
2018-07-15T08:36:28.792Z,5.73
2018-07-15T08:38:59.888Z,7.00
2018-07-15T08:41:30.518Z,6.33
2018-07-15T08:44:01.291Z,6.87
2018-07-15T08:46:32.289Z,7.17
2018-07-15T08:49:01.771Z,6.80
2018-07-15T08:51:34.814Z,5.70
2018-07-15T08:54:04.979Z,6.80
2018-07-15T08:56:36.263Z,6.17
2018-07-15T08:59:07.218Z,6.10
2018-07-15T09:01:36.917Z,6.53
2018-07-15T09:04:06.824Z,6.10
2018-07-15T09:06:36.238Z,6.20
2018-07-15T09:09:06.865Z,6.17
2018-07-15T09:11:36.757Z,5.90
2018-07-15T09:14:07.107Z,6.33
2018-07-15T09:16:37.620Z,5.93
2018-07-15T09:19:07.949Z,5.00
2018-07-15T09:21:38.035Z,5.77
2018-07-15T09:24:11.896Z,5.93
2018-07-15T09:26:42.562Z,6.30
2018-07-15T09:29:13.544Z,6.53
2018-07-15T09:31:44.324Z,6.10
2018-07-15T09:34:14.264Z,6.57
2018-07-15T09:36:43.928Z,6.40
2018-07-15T09:39:14.051Z,5.90
2018-07-15T09:41:43.596Z,5.60
2018-07-15T09:44:13.175Z,6.53
2018-07-15T09:46:42.650Z,5.67
2018-07-15T09:49:13.019Z,6.20
2018-07-15T09:51:42.551Z,6.87
2018-07-15T09:54:14.846Z,7.37
2018-07-15T09:56:44.539Z,5.60
2018-07-15T09:59:14.475Z,5.60
2018-07-15T10:01:44.564Z,5.67
2018-07-15T10:04:15.746Z,4.90
2018-07-15T10:06:45.645Z,3.90
2018-07-15T10:09:14.993Z,3.80
2018-07-15T10:11:46.890Z,4.70
2018-07-15T10:14:18.171Z,4.57
2018-07-15T10:16:48.354Z,4.70
2018-07-15T10:19:18.272Z,4.60
2018-07-15T10:21:48.250Z,3.70
2018-07-15T10:24:20.140Z,4.50
2018-07-15T10:26:51.513Z,4.57
2018-07-15T10:29:21.043Z,5.07
2018-07-15T10:31:51.498Z,4.60
2018-07-15T10:34:22.245Z,4.43
2018-07-15T10:36:52.645Z,4.50
2018-07-15T10:39:22.923Z,5.40
2018-07-15T10:41:52.547Z,4.40
2018-07-15T10:44:22.367Z,4.57
2018-07-15T10:46:53.043Z,4.40
2018-07-15T10:49:22.909Z,4.73
2018-07-15T10:51:52.607Z,4.53
2018-07-15T10:54:22.784Z,4.33
2018-07-15T10:56:52.274Z,4.07
2018-07-15T10:59:21.489Z,4.33
2018-07-15T11:01:53.029Z,5.17
2018-07-15T11:04:22.291Z,4.47
2018-07-15T11:06:52.517Z,4.90
2018-07-15T11:09:21.856Z,4.07
2018-07-15T11:11:51.196Z,4.30
2018-07-15T11:14:20.620Z,4.37
2018-07-15T11:16:50.135Z,3.97
2018-07-15T11:19:19.349Z,4.57
2018-07-15T11:21:50.759Z,3.87
2018-07-15T11:24:21.642Z,5.10
2018-07-15T11:26:51.158Z,4.00
2018-07-15T11:29:20.636Z,3.60
2018-07-15T11:31:50.115Z,4.00
2018-07-15T11:34:19.485Z,4.40
2018-07-15T11:36:50.155Z,3.63
2018-07-15T11:39:19.231Z,4.10
2018-07-15T11:41:50.327Z,3.83
2018-07-15T11:44:20.564Z,3.90
2018-07-15T11:46:51.010Z,4.00
2018-07-15T11:49:20.167Z,5.07
2018-07-15T11:51:50.160Z,4.60
2018-07-15T11:54:21.357Z,3.80
2018-07-15T11:56:50.425Z,4.40
2018-07-15T11:59:20.039Z,4.50
2018-07-15T12:01:49.527Z,4.10
2018-07-15T12:04:19.846Z,4.33
2018-07-15T12:06:49.325Z,4.57
2018-07-15T12:09:18.725Z,4.80
2018-07-15T12:11:48.056Z,4.17
2018-07-15T12:14:17.204Z,4.70
2018-07-15T12:16:47.267Z,3.40
2018-07-15T12:19:16.838Z,4.10
2018-07-15T12:21:46.133Z,4.83
2018-07-15T12:24:15.227Z,4.23
2018-07-15T12:26:45.425Z,4.30
2018-07-15T12:29:15.163Z,4.23
2018-07-15T12:31:45.822Z,3.50
2018-07-15T12:34:16.265Z,3.90
2018-07-15T12:36:46.395Z,3.37
2018-07-15T12:39:15.555Z,3.57
2018-07-15T12:41:45.366Z,3.80
2018-07-15T12:44:17.065Z,3.80
2018-07-15T12:46:47.191Z,3.00
2018-07-15T12:49:17.135Z,3.20
2018-07-15T12:51:46.538Z,3.07
2018-07-15T12:54:16.728Z,4.37
2018-07-15T12:56:46.578Z,3.57
2018-07-15T12:59:15.857Z,3.20
2018-07-15T13:01:45.073Z,3.10
2018-07-15T13:04:14.604Z,3.30
2018-07-15T13:06:44.411Z,4.10
2018-07-15T13:09:13.533Z,3.63
2018-07-15T13:11:42.746Z,3.50
2018-07-15T13:14:13.514Z,4.00
2018-07-15T13:16:43.161Z,3.80
2018-07-15T13:19:12.562Z,4.70
2018-07-15T13:21:42.005Z,4.40
2018-07-15T13:24:12.782Z,4.63
2018-07-15T13:26:44.478Z,4.50
2018-07-15T13:29:14.608Z,3.70
2018-07-15T13:31:45.614Z,4.10
2018-07-15T13:34:15.016Z,3.83
2018-07-15T13:36:44.682Z,5.33
2018-07-15T13:39:15.206Z,4.70
2018-07-15T13:41:45.528Z,4.33
2018-07-15T13:44:16.066Z,4.37
2018-07-15T13:46:50.168Z,3.87
2018-07-15T13:49:19.575Z,4.10
2018-07-15T13:51:50.312Z,3.83
2018-07-15T13:54:21.473Z,4.13
2018-07-15T13:56:51.812Z,4.40
2018-07-15T13:59:21.328Z,4.50
2018-07-15T14:01:51.023Z,3.60
2018-07-15T14:04:22.319Z,4.60
2018-07-15T14:06:52.016Z,4.47
2018-07-15T14:09:21.628Z,4.30
2018-07-15T14:11:51.316Z,3.97
2018-07-15T14:14:21.846Z,3.97
2018-07-15T14:16:51.215Z,4.67
2018-07-15T14:19:21.711Z,4.13
2018-07-15T14:21:51.316Z,3.30
2018-07-15T14:24:21.456Z,3.50
2018-07-15T14:26:50.748Z,4.00
2018-07-15T14:29:20.250Z,4.47
2018-07-15T14:31:50.894Z,4.10
2018-07-15T14:34:20.482Z,4.63
2018-07-15T14:36:49.597Z,3.67
2018-07-15T14:39:18.834Z,4.33
2018-07-15T14:41:47.880Z,5.13
2018-07-15T14:44:17.150Z,5.57
2018-07-15T14:46:46.343Z,4.80
2018-07-15T14:49:15.375Z,4.57
2018-07-15T14:51:44.366Z,3.67
2018-07-15T14:54:13.392Z,3.57
2018-07-15T14:56:42.524Z,3.20
2018-07-15T14:59:12.115Z,4.30
2018-07-15T15:01:42.947Z,4.03
2018-07-15T15:04:12.005Z,5.23
2018-07-15T15:06:41.583Z,4.60
2018-07-15T15:09:10.859Z,4.10
2018-07-15T15:11:41.083Z,3.37
2018-07-15T15:14:10.856Z,3.50
2018-07-15T15:16:40.283Z,3.70
2018-07-15T15:19:09.691Z,3.43
2018-07-15T15:21:39.478Z,3.70
2018-07-15T15:24:09.442Z,3.80
2018-07-15T15:26:38.901Z,3.33
2018-07-15T15:29:08.281Z,4.10
2018-07-15T15:31:43.589Z,3.30
2018-07-15T15:34:13.039Z,3.87
2018-07-15T15:36:42.409Z,4.20
2018-07-15T15:39:11.972Z,3.90
2018-07-15T15:41:41.472Z,3.57
2018-07-15T15:44:10.847Z,4.33
2018-07-15T15:46:40.470Z,3.20
2018-07-15T15:49:09.735Z,3.80
2018-07-15T15:51:39.137Z,4.33
2018-07-15T15:54:09.152Z,3.43
2018-07-15T15:56:38.638Z,4.17
2018-07-15T15:59:07.937Z,4.10
2018-07-15T16:01:37.321Z,4.30
2018-07-15T16:04:07.521Z,4.50
2018-07-15T16:06:36.926Z,4.43
2018-07-15T16:09:07.833Z,3.70
2018-07-15T16:11:37.169Z,4.23
2018-07-15T16:14:07.113Z,4.20
2018-07-15T16:16:36.728Z,5.20
2018-07-15T16:19:06.344Z,4.90
2018-07-15T16:21:35.783Z,4.40
2018-07-15T16:24:05.289Z,4.57
2018-07-15T16:26:35.712Z,5.10
2018-07-15T16:29:05.137Z,5.00
2018-07-15T16:31:34.891Z,5.33
2018-07-15T16:34:04.376Z,4.63
2018-07-15T16:36:33.723Z,4.70
2018-07-15T16:39:03.138Z,4.83
2018-07-15T16:44:24.658Z,5.03
2018-07-15T16:46:54.769Z,5.30
2018-07-15T16:49:24.672Z,5.27
2018-07-15T16:51:54.044Z,5.03
2018-07-15T16:54:25.371Z,5.10
2018-07-15T16:56:56.701Z,5.30
2018-07-15T16:59:26.164Z,5.43
2018-07-15T17:01:55.491Z,5.47
2018-07-15T17:04:25.036Z,5.33
2018-07-15T17:06:54.964Z,4.70
2018-07-15T17:09:24.856Z,5.60
2018-07-15T17:11:55.955Z,4.60
2018-07-15T17:14:25.421Z,4.80
2018-07-15T17:16:55.058Z,5.03
2018-07-15T17:19:25.742Z,4.90
2018-07-15T17:21:55.725Z,5.17
2018-07-15T17:24:26.075Z,5.17
2018-07-15T17:26:55.822Z,5.10
2018-07-15T17:29:25.881Z,4.80
2018-07-15T17:31:55.295Z,5.20
2018-07-15T17:34:26.167Z,5.40
2018-07-15T17:36:55.694Z,6.13
2018-07-15T17:39:25.149Z,4.63
2018-07-15T17:41:55.610Z,5.83
2018-07-15T17:44:25.715Z,4.93
2018-07-15T17:46:56.881Z,5.40
2018-07-15T17:49:26.697Z,4.67
2018-07-15T17:51:58.615Z,5.33
2018-07-15T17:54:28.174Z,5.07
2018-07-15T17:56:57.597Z,5.50
2018-07-15T17:59:27.483Z,5.30
2018-07-15T18:01:56.932Z,5.50
2018-07-15T18:04:26.517Z,5.53
2018-07-15T18:06:55.993Z,5.73
2018-07-15T18:09:25.347Z,5.70
2018-07-15T18:11:55.766Z,5.30
2018-07-15T18:14:25.271Z,5.00
2018-07-15T18:16:54.419Z,4.77
2018-07-15T18:19:23.945Z,5.47
2018-07-15T18:21:55.893Z,4.80
2018-07-15T18:24:27.996Z,5.27
2018-07-15T18:26:58.021Z,6.00
2018-07-15T18:29:27.684Z,5.00
2018-07-15T18:31:57.568Z,5.77
2018-07-15T18:34:28.536Z,5.93
2018-07-15T18:37:00.373Z,5.30
2018-07-15T18:39:30.791Z,4.33
2018-07-15T18:42:01.242Z,6.10
2018-07-15T18:44:31.789Z,5.90
2018-07-15T18:47:01.243Z,5.67
2018-07-15T18:49:30.985Z,5.13
2018-07-15T18:52:01.182Z,5.43
2018-07-15T18:54:31.298Z,6.00
2018-07-15T18:57:02.546Z,6.83
2018-07-15T18:59:32.364Z,5.53
2018-07-15T19:02:02.739Z,5.97
2018-07-15T19:04:32.913Z,6.00
2018-07-15T19:07:03.533Z,5.70
2018-07-15T19:09:35.380Z,6.90
2018-07-15T19:12:05.645Z,5.37
2018-07-15T19:14:38.753Z,5.50
2018-07-15T19:17:08.431Z,6.50
2018-07-15T19:19:38.229Z,7.67
2018-07-15T19:22:07.848Z,5.40
2018-07-15T19:24:38.401Z,5.83
2018-07-15T19:27:07.939Z,6.70
2018-07-15T19:29:37.469Z,6.00
2018-07-15T19:32:06.991Z,5.97
2018-07-15T19:34:36.518Z,5.30
2018-07-15T19:37:07.299Z,5.60
2018-07-15T19:39:37.037Z,5.70
2018-07-15T19:42:07.098Z,4.23
2018-07-15T19:44:36.430Z,5.10
2018-07-15T19:47:07.866Z,6.00
2018-07-15T19:49:38.639Z,5.63
2018-07-15T19:52:08.592Z,5.83
2018-07-15T19:54:38.101Z,5.67
2018-07-15T19:57:07.923Z,6.40
2018-07-15T19:59:37.424Z,6.50
2018-07-15T20:02:07.317Z,5.97
2018-07-15T20:04:36.825Z,6.20
2018-07-15T20:07:08.040Z,5.40
2018-07-15T20:09:37.527Z,6.60
2018-07-15T20:12:06.874Z,5.40
2018-07-15T20:14:36.294Z,5.70
2018-07-15T20:17:06.027Z,5.33
2018-07-15T20:19:35.439Z,6.10
2018-07-15T20:22:04.834Z,5.60
2018-07-15T20:24:35.490Z,5.57
2018-07-15T20:27:05.005Z,5.40
2018-07-15T20:29:34.491Z,6.37
2018-07-15T20:32:05.127Z,6.20
2018-07-15T20:34:34.581Z,6.03
2018-07-15T20:37:03.869Z,6.10
2018-07-15T20:39:33.221Z,6.80
2018-07-15T20:42:02.886Z,5.93
2018-07-15T20:44:32.005Z,5.77
2018-07-15T20:47:01.191Z,6.23
2018-07-15T20:49:30.336Z,5.90
2018-07-15T20:51:59.456Z,6.13
2018-07-15T20:54:29.129Z,6.73
2018-07-15T20:57:00.474Z,5.90
2018-07-15T20:59:29.910Z,5.93
2018-07-15T21:01:59.091Z,6.40
2018-07-15T21:04:28.438Z,5.67
2018-07-15T21:06:57.581Z,5.77
2018-07-15T21:09:26.641Z,6.30
2018-07-15T21:11:55.801Z,6.63
2018-07-15T21:14:24.866Z,6.60
2018-07-15T21:16:53.992Z,5.50
2018-07-15T21:19:23.097Z,5.23
2018-07-15T21:21:52.232Z,5.40
2018-07-15T21:24:21.414Z,5.77
2018-07-15T21:26:50.756Z,5.70
2018-07-15T21:29:19.889Z,6.10
2018-07-15T21:31:48.926Z,5.73
2018-07-15T21:34:18.073Z,6.47
2018-07-15T21:36:47.177Z,5.67
2018-07-15T21:39:16.279Z,6.47
2018-07-15T21:41:45.369Z,5.50
2018-07-15T21:44:14.531Z,5.87
2018-07-15T21:46:43.766Z,6.10
2018-07-15T21:49:13.807Z,5.40
2018-07-15T21:51:42.927Z,5.83
2018-07-15T21:54:12.135Z,5.53
2018-07-15T21:56:41.258Z,6.20
2018-07-15T21:59:10.368Z,6.40
2018-07-15T22:01:41.385Z,6.10
2018-07-15T22:04:11.131Z,7.00
2018-07-15T22:06:50.944Z,7.10
2018-07-15T22:09:30.983Z,6.50
2018-07-15T22:12:00.964Z,5.50
2018-07-15T22:14:29.948Z,6.90
2018-07-15T22:16:59.019Z,6.63
2018-07-15T22:19:29.224Z,7.10
2018-07-15T22:21:58.275Z,8.57
2018-07-15T22:24:27.281Z,7.20
2018-07-15T22:26:56.401Z,6.13
2018-07-15T22:29:25.565Z,6.60
2018-07-15T22:31:54.668Z,6.10
2018-07-15T22:34:23.770Z,5.70
2018-07-15T22:36:52.938Z,4.60
2018-07-15T22:39:21.965Z,5.83
2018-07-15T22:41:51.057Z,5.67
2018-07-15T22:44:20.150Z,5.80
2018-07-15T22:46:49.300Z,5.80
2018-07-15T22:49:18.447Z,6.43
2018-07-15T22:51:47.896Z,5.40
2018-07-15T22:54:16.980Z,8.60
2018-07-15T22:56:45.995Z,9.80
2018-07-15T22:59:15.032Z,9.50
2018-07-15T23:01:44.162Z,7.80
2018-07-15T23:04:13.257Z,7.40
2018-07-15T23:06:43.048Z,7.97
2018-07-15T23:09:12.101Z,7.30
2018-07-15T23:11:41.177Z,6.33
2018-07-15T23:14:10.359Z,6.07
2018-07-15T23:16:39.546Z,5.67
2018-07-15T23:19:08.735Z,5.13
2018-07-15T23:21:38.822Z,6.57
2018-07-15T23:24:09.238Z,6.43
2018-07-15T23:26:41.850Z,6.20
2018-07-15T23:29:10.965Z,6.73
2018-07-15T23:31:39.999Z,5.57
2018-07-15T23:34:09.128Z,6.10
2018-07-15T23:36:38.170Z,5.30
2018-07-15T23:39:07.330Z,6.13
2018-07-15T23:41:36.471Z,5.90
2018-07-15T23:44:05.557Z,5.43
2018-07-15T23:46:34.619Z,6.70
2018-07-15T23:49:03.706Z,6.20
2018-07-15T23:51:32.737Z,5.17
2018-07-15T23:54:02.038Z,5.97
2018-07-15T23:56:34.938Z,5.77
2018-07-15T23:59:04.005Z,5.60
